< < Back
Terminal Aerodrome Forecast


Current Version              Previous Versions:   1  2  3  4  5  6  7  8  9  

Terminal Aerodrome Forecast

733
FTUS42 KILM 281700
TAFFLO
TAF
KFLO 281723Z 2818/2918 26011KT P6SM SCT050 SCT200
     FM281930 28011G18KT P6SM VCTS SCT040CB BKN200
      TEMPO 2820/2824 VRB20G40KT 1SM TSRA BKN030CB
     FM290100 31008KT P6SM BKN040 BKN250
     FM290600 01007KT P6SM SCT040
     FM291300 04010KT P6SM FEW040=

Latest METAR

720
SAUS70 KWBC 290012
MTRFLO
METAR KFLO 282353Z 03005KT 10SM SCT070 A2980


USA.gov is the U.S. government's official web portal to all federal, state and local government web resources and services.